LAN896 EGYP-SAWG
Flight info
| Callsign | LAN896 |
|---|---|
| Flight time | 1h 10m |
| Altitude | 36000 |
| Route | DIGIS UW54 SUNKO DCT UMLOP |
| Aircraft | A20N/M-SDE2E3FGHIRWXY/LB1 |
Departure
| Time | 2026-04-19 19:20 |
|---|---|
| Airport | Mount Pleasant Airport / RAF Mount Pleasant (EGYP) |
Arrival
| Time | 2026-04-19 20:31 |
|---|---|
| Airport | Piloto Civil Norberto Fernández International Airport (SAWG) |
| Time | Latitude | Longitude | Altitude | Speed | Heading |
|---|---|---|---|---|---|
| 2026-04-19 19:06 | -51.82210 | -58.46791 | 260 ft | 0 kts | 286° |
| 2026-04-19 19:13 | -51.82212 | -58.46781 | 260 ft | 2 kts | 284° |
| 2026-04-19 19:13 | -51.82216 | -58.46755 | 260 ft | 2 kts | 285° |
| 2026-04-19 19:14 | -51.82221 | -58.46730 | 260 ft | 2 kts | 284° |
| 2026-04-19 19:14 | -51.82225 | -58.46703 | 259 ft | 2 kts | 283° |
| 2026-04-19 19:14 | -51.82228 | -58.46678 | 259 ft | 2 kts | 282° |
| 2026-04-19 19:14 | -51.82232 | -58.46651 | 259 ft | 2 kts | 290° |
| 2026-04-19 19:15 | -51.82234 | -58.46641 | 259 ft | 0 kts | 330° |
| 2026-04-19 19:16 | -51.82230 | -58.46639 | 259 ft | 3 kts | 2° |
| 2026-04-19 19:16 | -51.82176 | -58.46609 | 259 ft | 12 kts | 17° |
| 2026-04-19 19:16 | -51.82094 | -58.46542 | 258 ft | 15 kts | 57° |
| 2026-04-19 19:16 | -51.82035 | -58.46379 | 259 ft | 18 kts | 59° |
| 2026-04-19 19:17 | -51.82003 | -58.46166 | 256 ft | 21 kts | 105° |
| 2026-04-19 19:17 | -51.82044 | -58.45921 | 258 ft | 23 kts | 105° |
| 2026-04-19 19:17 | -51.82088 | -58.45666 | 261 ft | 24 kts | 105° |
| 2026-04-19 19:17 | -51.82129 | -58.45415 | 263 ft | 23 kts | 105° |
| 2026-04-19 19:18 | -51.82175 | -58.45148 | 263 ft | 26 kts | 105° |
| 2026-04-19 19:18 | -51.82224 | -58.44854 | 262 ft | 29 kts | 105° |
| 2026-04-19 19:18 | -51.82279 | -58.44527 | 260 ft | 31 kts | 105° |
| 2026-04-19 19:18 | -51.82306 | -58.44231 | 263 ft | 27 kts | 75° |
| 2026-04-19 19:19 | -51.82280 | -58.43980 | 260 ft | 24 kts | 104° |
| 2026-04-19 19:19 | -51.82363 | -58.43902 | 264 ft | 14 kts | 218° |
| 2026-04-19 19:19 | -51.82372 | -58.43982 | 264 ft | 0 kts | 282° |
| 2026-04-19 19:20 | -51.82251 | -58.44705 | 261 ft | 106 kts | 285° |
| 2026-04-19 19:20 | -51.81991 | -58.46167 | 494 ft | 151 kts | 281° |
| 2026-04-19 19:20 | -51.81680 | -58.47913 | 1203 ft | 170 kts | 280° |
| 2026-04-19 19:20 | -51.81323 | -58.49793 | 2050 ft | 183 kts | 278° |
| 2026-04-19 19:21 | -51.80908 | -58.51791 | 2918 ft | 193 kts | 281° |
| 2026-04-19 19:21 | -51.80490 | -58.53933 | 3548 ft | 210 kts | 276° |
| 2026-04-19 19:21 | -51.80171 | -58.56363 | 4187 ft | 231 kts | 275° |
| 2026-04-19 19:21 | -51.79833 | -58.59009 | 4881 ft | 247 kts | 276° |
| 2026-04-19 19:22 | -51.79434 | -58.61762 | 5871 ft | 254 kts | 278° |
| 2026-04-19 19:22 | -51.79105 | -58.64537 | 6824 ft | 252 kts | 263° |
| 2026-04-19 19:22 | -51.79591 | -58.67213 | 7733 ft | 250 kts | 239° |
| 2026-04-19 19:22 | -51.80509 | -58.69578 | 8740 ft | 252 kts | 233° |
| 2026-04-19 19:23 | -51.81541 | -58.71921 | 9692 ft | 257 kts | 232° |
| 2026-04-19 19:23 | -51.82637 | -58.74340 | 10181 ft | 279 kts | 232° |
| 2026-04-19 19:23 | -51.83747 | -58.77092 | 10532 ft | 304 kts | 242° |
| 2026-04-19 19:23 | -51.84481 | -58.80337 | 11194 ft | 315 kts | 253° |
| 2026-04-19 19:24 | -51.84919 | -58.83866 | 12095 ft | 321 kts | 258° |
| 2026-04-19 19:24 | -51.85202 | -58.87483 | 12997 ft | 325 kts | 261° |
| 2026-04-19 19:24 | -51.85425 | -58.91114 | 13766 ft | 330 kts | 262° |
| 2026-04-19 19:24 | -51.85639 | -58.94846 | 14580 ft | 333 kts | 262° |
| 2026-04-19 19:25 | -51.85856 | -58.98607 | 15366 ft | 337 kts | 263° |
| 2026-04-19 19:25 | -51.85932 | -59.02384 | 16130 ft | 341 kts | 266° |
| 2026-04-19 19:25 | -51.85978 | -59.06253 | 16888 ft | 345 kts | 266° |
| 2026-04-19 19:25 | -51.86035 | -59.10172 | 17649 ft | 349 kts | 266° |
| 2026-04-19 19:26 | -51.86092 | -59.14089 | 18308 ft | 352 kts | 266° |
| 2026-04-19 19:26 | -51.86151 | -59.18076 | 18961 ft | 356 kts | 266° |
| 2026-04-19 19:26 | -51.86208 | -59.22065 | 19624 ft | 358 kts | 266° |
| 2026-04-19 19:26 | -51.86264 | -59.26131 | 20276 ft | 362 kts | 266° |
| 2026-04-19 19:27 | -51.86319 | -59.30236 | 20955 ft | 365 kts | 266° |
| 2026-04-19 19:27 | -51.86370 | -59.34305 | 21598 ft | 368 kts | 266° |
| 2026-04-19 19:27 | -51.86421 | -59.38475 | 22218 ft | 371 kts | 266° |
| 2026-04-19 19:27 | -51.86472 | -59.42677 | 22835 ft | 375 kts | 266° |
| 2026-04-19 19:28 | -51.86522 | -59.46884 | 23386 ft | 378 kts | 266° |
| 2026-04-19 19:28 | -51.86571 | -59.51166 | 23960 ft | 379 kts | 266° |
| 2026-04-19 19:28 | -51.86618 | -59.55426 | 24489 ft | 382 kts | 266° |
| 2026-04-19 19:28 | -51.86664 | -59.59749 | 24992 ft | 385 kts | 266° |
| 2026-04-19 19:29 | -51.86710 | -59.64111 | 25505 ft | 387 kts | 266° |
| 2026-04-19 19:29 | -51.86753 | -59.68436 | 26005 ft | 389 kts | 267° |
| 2026-04-19 19:29 | -51.86795 | -59.72853 | 26483 ft | 392 kts | 267° |
| 2026-04-19 19:29 | -51.86836 | -59.77275 | 26945 ft | 394 kts | 267° |
| 2026-04-19 19:30 | -51.86876 | -59.81746 | 27387 ft | 397 kts | 267° |
| 2026-04-19 19:30 | -51.86914 | -59.86192 | 27817 ft | 400 kts | 267° |
| 2026-04-19 19:30 | -51.86951 | -59.90720 | 28235 ft | 402 kts | 267° |
| 2026-04-19 19:30 | -51.86986 | -59.95272 | 28650 ft | 405 kts | 268° |
| 2026-04-19 19:31 | -51.87019 | -59.99792 | 29037 ft | 407 kts | 268° |
| 2026-04-19 19:31 | -51.87051 | -60.04399 | 29430 ft | 409 kts | 268° |
| 2026-04-19 19:31 | -51.87081 | -60.09034 | 29807 ft | 412 kts | 268° |
| 2026-04-19 19:31 | -51.87110 | -60.13634 | 30107 ft | 415 kts | 268° |
| 2026-04-19 19:32 | -51.87137 | -60.18342 | 30397 ft | 418 kts | 268° |
| 2026-04-19 19:32 | -51.87163 | -60.23063 | 30716 ft | 420 kts | 268° |
| 2026-04-19 19:32 | -51.87186 | -60.27754 | 31095 ft | 421 kts | 268° |
| 2026-04-19 19:32 | -51.87208 | -60.32522 | 31499 ft | 421 kts | 269° |
| 2026-04-19 19:33 | -51.87227 | -60.37266 | 31891 ft | 421 kts | 269° |
| 2026-04-19 19:33 | -51.87245 | -60.41968 | 32271 ft | 422 kts | 269° |
| 2026-04-19 19:33 | -51.87262 | -60.46752 | 32660 ft | 422 kts | 269° |
| 2026-04-19 19:33 | -51.87276 | -60.51473 | 33040 ft | 422 kts | 269° |
| 2026-04-19 19:34 | -51.87289 | -60.56200 | 33404 ft | 422 kts | 270° |
| 2026-04-19 19:34 | -51.87300 | -60.60953 | 33725 ft | 422 kts | 270° |
| 2026-04-19 19:34 | -51.87309 | -60.65722 | 34008 ft | 422 kts | 270° |
| 2026-04-19 19:34 | -51.87316 | -60.70438 | 34288 ft | 422 kts | 270° |
| 2026-04-19 19:35 | -51.87321 | -60.75212 | 34552 ft | 423 kts | 270° |
| 2026-04-19 19:35 | -51.87324 | -60.80002 | 34804 ft | 423 kts | 270° |
| 2026-04-19 19:35 | -51.87325 | -60.84714 | 35045 ft | 424 kts | 270° |
| 2026-04-19 19:35 | -51.87323 | -60.89522 | 35294 ft | 424 kts | 270° |
| 2026-04-19 19:36 | -51.87320 | -60.94255 | 35533 ft | 425 kts | 271° |
| 2026-04-19 19:36 | -51.87315 | -60.99044 | 35639 ft | 425 kts | 271° |
| 2026-04-19 19:36 | -51.87308 | -61.03847 | 35647 ft | 424 kts | 271° |
| 2026-04-19 19:37 | -51.87288 | -61.13382 | 35648 ft | 424 kts | 271° |
| 2026-04-19 19:37 | -51.87260 | -61.22932 | 35653 ft | 424 kts | 271° |
| 2026-04-19 19:38 | -51.87225 | -61.32496 | 35660 ft | 424 kts | 271° |
| 2026-04-19 19:38 | -51.87182 | -61.42002 | 35664 ft | 424 kts | 271° |
| 2026-04-19 19:39 | -51.87132 | -61.51559 | 35673 ft | 424 kts | 271° |
| 2026-04-19 19:39 | -51.87073 | -61.61090 | 35670 ft | 424 kts | 271° |
| 2026-04-19 19:40 | -51.87007 | -61.70623 | 35680 ft | 424 kts | 271° |
| 2026-04-19 19:40 | -51.86932 | -61.80154 | 35683 ft | 424 kts | 271° |
| 2026-04-19 19:41 | -51.86850 | -61.89738 | 35685 ft | 424 kts | 271° |
| 2026-04-19 19:41 | -51.86760 | -61.99270 | 35693 ft | 424 kts | 271° |
| 2026-04-19 19:42 | -51.86663 | -62.08771 | 35693 ft | 424 kts | 271° |
| 2026-04-19 19:42 | -51.86558 | -62.18282 | 35695 ft | 423 kts | 271° |
| 2026-04-19 19:43 | -51.86446 | -62.27802 | 35699 ft | 423 kts | 271° |
| 2026-04-19 19:43 | -51.86326 | -62.37361 | 35699 ft | 423 kts | 271° |
| 2026-04-19 19:44 | -51.86205 | -62.46852 | 35699 ft | 422 kts | 271° |
| 2026-04-19 19:44 | -51.86119 | -62.56304 | 35707 ft | 422 kts | 271° |
| 2026-04-19 19:45 | -51.86063 | -62.65827 | 35702 ft | 422 kts | 271° |
| 2026-04-19 19:45 | -51.85996 | -62.75289 | 35704 ft | 421 kts | 271° |
| 2026-04-19 19:46 | -51.85916 | -62.84784 | 35707 ft | 421 kts | 271° |
| 2026-04-19 19:46 | -51.85826 | -62.94227 | 35705 ft | 421 kts | 271° |
| 2026-04-19 19:47 | -51.85730 | -63.03652 | 35711 ft | 420 kts | 271° |
| 2026-04-19 19:47 | -51.85625 | -63.13140 | 35712 ft | 420 kts | 271° |
| 2026-04-19 19:48 | -51.85513 | -63.22571 | 35714 ft | 420 kts | 271° |
| 2026-04-19 19:48 | -51.85393 | -63.32006 | 35717 ft | 420 kts | 271° |
| 2026-04-19 19:49 | -51.85266 | -63.41430 | 35720 ft | 420 kts | 272° |
| 2026-04-19 19:49 | -51.85131 | -63.50922 | 35719 ft | 420 kts | 272° |
| 2026-04-19 19:50 | -51.85013 | -63.58775 | 35724 ft | 420 kts | 272° |
| 2026-04-19 19:50 | -51.84865 | -63.68207 | 35728 ft | 420 kts | 272° |
| 2026-04-19 19:51 | -51.84708 | -63.77682 | 35729 ft | 420 kts | 272° |
| 2026-04-19 19:51 | -51.84544 | -63.87138 | 35731 ft | 421 kts | 272° |
| 2026-04-19 19:52 | -51.84372 | -63.96579 | 35734 ft | 421 kts | 272° |
| 2026-04-19 19:52 | -51.84194 | -64.05997 | 35739 ft | 421 kts | 272° |
| 2026-04-19 19:53 | -51.84007 | -64.15452 | 35742 ft | 421 kts | 272° |
| 2026-04-19 19:53 | -51.83813 | -64.24910 | 35742 ft | 421 kts | 272° |
| 2026-04-19 19:54 | -51.83609 | -64.34421 | 35746 ft | 421 kts | 272° |
| 2026-04-19 19:54 | -51.83400 | -64.43845 | 35745 ft | 421 kts | 272° |
| 2026-04-19 19:55 | -51.83184 | -64.53286 | 35745 ft | 421 kts | 272° |
| 2026-04-19 19:55 | -51.82958 | -64.62788 | 35747 ft | 421 kts | 272° |
| 2026-04-19 19:56 | -51.82725 | -64.72239 | 35748 ft | 422 kts | 272° |
| 2026-04-19 19:56 | -51.82485 | -64.81702 | 35745 ft | 422 kts | 272° |
| 2026-04-19 19:57 | -51.82236 | -64.91214 | 35751 ft | 422 kts | 272° |
| 2026-04-19 19:57 | -51.81982 | -65.00629 | 35748 ft | 422 kts | 272° |
| 2026-04-19 19:58 | -51.81718 | -65.10121 | 35755 ft | 422 kts | 272° |
| 2026-04-19 19:58 | -51.81446 | -65.19637 | 35758 ft | 422 kts | 272° |
| 2026-04-19 19:59 | -51.81167 | -65.29099 | 35755 ft | 423 kts | 272° |
| 2026-04-19 19:59 | -51.80881 | -65.38564 | 35758 ft | 423 kts | 273° |
| 2026-04-19 20:00 | -51.80587 | -65.48049 | 35750 ft | 423 kts | 273° |
| 2026-04-19 20:00 | -51.80284 | -65.57563 | 35756 ft | 423 kts | 273° |
| 2026-04-19 20:01 | -51.79973 | -65.67076 | 35761 ft | 423 kts | 273° |
| 2026-04-19 20:01 | -51.79655 | -65.76590 | 35752 ft | 424 kts | 273° |
| 2026-04-19 20:02 | -51.79330 | -65.86065 | 35756 ft | 424 kts | 273° |
| 2026-04-19 20:02 | -51.79001 | -65.95562 | 35760 ft | 424 kts | 273° |
| 2026-04-19 20:03 | -51.78581 | -66.05096 | 35753 ft | 424 kts | 274° |
| 2026-04-19 20:03 | -51.78186 | -66.14521 | 35289 ft | 419 kts | 273° |
| 2026-04-19 20:03 | -51.77995 | -66.19192 | 34730 ft | 418 kts | 274° |
| 2026-04-19 20:04 | -51.77795 | -66.23886 | 34107 ft | 418 kts | 274° |
| 2026-04-19 20:04 | -51.77588 | -66.28597 | 33406 ft | 418 kts | 274° |
| 2026-04-19 20:04 | -51.77379 | -66.33260 | 32692 ft | 416 kts | 274° |
| 2026-04-19 20:04 | -51.77170 | -66.37864 | 31984 ft | 415 kts | 274° |
| 2026-04-19 20:05 | -51.76956 | -66.42540 | 31260 ft | 413 kts | 274° |
| 2026-04-19 20:05 | -51.76741 | -66.47176 | 30541 ft | 412 kts | 275° |
| 2026-04-19 20:05 | -51.76530 | -66.51709 | 30003 ft | 407 kts | 275° |
| 2026-04-19 20:05 | -51.76317 | -66.56231 | 29805 ft | 401 kts | 275° |
| 2026-04-19 20:06 | -51.76100 | -66.60774 | 29760 ft | 407 kts | 275° |
| 2026-04-19 20:06 | -51.75659 | -66.69906 | 29758 ft | 407 kts | 275° |
| 2026-04-19 20:07 | -51.75218 | -66.78938 | 29296 ft | 402 kts | 275° |
| 2026-04-19 20:07 | -51.74995 | -66.83443 | 28667 ft | 399 kts | 275° |
| 2026-04-19 20:07 | -51.74775 | -66.87854 | 28006 ft | 396 kts | 275° |
| 2026-04-19 20:07 | -51.74554 | -66.92269 | 27340 ft | 392 kts | 275° |
| 2026-04-19 20:08 | -51.74334 | -66.96605 | 26889 ft | 385 kts | 275° |
| 2026-04-19 20:08 | -51.74116 | -67.00898 | 26755 ft | 379 kts | 275° |
| 2026-04-19 20:08 | -51.73909 | -67.05055 | 26740 ft | 362 kts | 275° |
| 2026-04-19 20:08 | -51.73740 | -67.08985 | 26617 ft | 348 kts | 274° |
| 2026-04-19 20:09 | -51.73586 | -67.12826 | 26462 ft | 335 kts | 274° |
| 2026-04-19 20:09 | -51.73437 | -67.16513 | 26055 ft | 330 kts | 274° |
| 2026-04-19 20:09 | -51.73284 | -67.20214 | 25551 ft | 329 kts | 274° |
| 2026-04-19 20:09 | -51.73128 | -67.23880 | 25073 ft | 327 kts | 275° |
| 2026-04-19 20:10 | -51.72971 | -67.27504 | 24625 ft | 324 kts | 275° |
| 2026-04-19 20:10 | -51.72812 | -67.31138 | 24166 ft | 322 kts | 275° |
| 2026-04-19 20:10 | -51.72653 | -67.34747 | 23721 ft | 320 kts | 275° |
| 2026-04-19 20:10 | -51.72497 | -67.38289 | 23284 ft | 318 kts | 275° |
| 2026-04-19 20:11 | -51.72337 | -67.41861 | 22779 ft | 315 kts | 274° |
| 2026-04-19 20:11 | -51.72180 | -67.45332 | 22308 ft | 313 kts | 274° |
| 2026-04-19 20:11 | -51.72021 | -67.48824 | 21835 ft | 310 kts | 274° |
| 2026-04-19 20:11 | -51.71863 | -67.52294 | 21374 ft | 307 kts | 274° |
| 2026-04-19 20:12 | -51.71708 | -67.55686 | 20928 ft | 305 kts | 274° |
| 2026-04-19 20:12 | -51.71550 | -67.59102 | 20491 ft | 302 kts | 273° |
| 2026-04-19 20:12 | -51.71395 | -67.62430 | 20054 ft | 300 kts | 273° |
| 2026-04-19 20:12 | -51.71237 | -67.65785 | 19637 ft | 297 kts | 273° |
| 2026-04-19 20:13 | -51.71080 | -67.69112 | 19219 ft | 295 kts | 273° |
| 2026-04-19 20:13 | -51.70925 | -67.72403 | 18817 ft | 292 kts | 273° |
| 2026-04-19 20:13 | -51.70771 | -67.75637 | 18410 ft | 290 kts | 273° |
| 2026-04-19 20:13 | -51.70615 | -67.78889 | 18012 ft | 288 kts | 272° |
| 2026-04-19 20:14 | -51.70463 | -67.82069 | 17578 ft | 285 kts | 272° |
| 2026-04-19 20:14 | -51.70309 | -67.85262 | 17133 ft | 283 kts | 272° |
| 2026-04-19 20:14 | -51.70157 | -67.88388 | 16701 ft | 281 kts | 273° |
| 2026-04-19 20:14 | -51.70004 | -67.91529 | 16258 ft | 279 kts | 273° |
| 2026-04-19 20:15 | -51.69902 | -67.93597 | 15981 ft | 277 kts | 273° |
| 2026-04-19 20:15 | -51.69700 | -67.97694 | 15415 ft | 275 kts | 273° |
| 2026-04-19 20:15 | -51.69548 | -68.00761 | 14986 ft | 274 kts | 273° |
| 2026-04-19 20:15 | -51.69395 | -68.03822 | 14570 ft | 272 kts | 272° |
| 2026-04-19 20:16 | -51.69244 | -68.06828 | 14154 ft | 271 kts | 273° |
| 2026-04-19 20:16 | -51.69049 | -68.09858 | 13748 ft | 270 kts | 276° |
| 2026-04-19 20:16 | -51.68797 | -68.12861 | 13314 ft | 269 kts | 275° |
| 2026-04-19 20:16 | -51.68560 | -68.15821 | 12878 ft | 267 kts | 275° |
| 2026-04-19 20:17 | -51.68323 | -68.18795 | 12449 ft | 265 kts | 275° |
| 2026-04-19 20:17 | -51.68088 | -68.21738 | 12014 ft | 264 kts | 275° |
| 2026-04-19 20:17 | -51.67853 | -68.24640 | 11595 ft | 263 kts | 275° |
| 2026-04-19 20:17 | -51.67616 | -68.27561 | 11196 ft | 261 kts | 275° |
| 2026-04-19 20:18 | -51.67379 | -68.30458 | 10781 ft | 259 kts | 275° |
| 2026-04-19 20:18 | -51.67145 | -68.33308 | 10442 ft | 256 kts | 275° |
| 2026-04-19 20:18 | -51.66912 | -68.36143 | 10169 ft | 258 kts | 275° |
| 2026-04-19 20:18 | -51.66676 | -68.38999 | 9893 ft | 255 kts | 275° |
| 2026-04-19 20:19 | -51.66440 | -68.41847 | 9620 ft | 254 kts | 275° |
| 2026-04-19 20:19 | -51.66207 | -68.44660 | 9298 ft | 252 kts | 275° |
| 2026-04-19 20:19 | -51.65979 | -68.47403 | 8984 ft | 248 kts | 275° |
| 2026-04-19 20:19 | -51.65751 | -68.50134 | 8656 ft | 243 kts | 275° |
| 2026-04-19 20:20 | -51.65527 | -68.52819 | 8332 ft | 238 kts | 275° |
| 2026-04-19 20:20 | -51.65310 | -68.55415 | 8021 ft | 234 kts | 275° |
| 2026-04-19 20:20 | -51.65093 | -68.57997 | 7706 ft | 231 kts | 275° |
| 2026-04-19 20:20 | -51.64879 | -68.60540 | 7397 ft | 227 kts | 276° |
| 2026-04-19 20:21 | -51.64669 | -68.63027 | 7092 ft | 224 kts | 276° |
| 2026-04-19 20:21 | -51.64459 | -68.65515 | 6782 ft | 221 kts | 276° |
| 2026-04-19 20:21 | -51.64253 | -68.67944 | 6497 ft | 222 kts | 276° |
| 2026-04-19 20:21 | -51.64043 | -68.70417 | 6186 ft | 222 kts | 276° |
| 2026-04-19 20:22 | -51.63834 | -68.72871 | 5869 ft | 220 kts | 277° |
| 2026-04-19 20:22 | -51.63628 | -68.75302 | 5550 ft | 218 kts | 277° |
| 2026-04-19 20:22 | -51.63591 | -68.75733 | 5497 ft | 218 kts | 277° |
| 2026-04-19 20:22 | -51.63445 | -68.77463 | 5269 ft | 216 kts | 278° |
| 2026-04-19 20:23 | -51.63240 | -68.79864 | 4957 ft | 214 kts | 278° |
| 2026-04-19 20:23 | -51.63041 | -68.82198 | 4646 ft | 210 kts | 279° |
| 2026-04-19 20:23 | -51.62842 | -68.84517 | 4331 ft | 207 kts | 279° |
| 2026-04-19 20:23 | -51.62648 | -68.86762 | 4003 ft | 201 kts | 280° |
| 2026-04-19 20:24 | -51.62457 | -68.88964 | 3693 ft | 195 kts | 281° |
| 2026-04-19 20:24 | -51.62267 | -68.91121 | 3387 ft | 193 kts | 281° |
| 2026-04-19 20:24 | -51.62085 | -68.93204 | 3242 ft | 180 kts | 281° |
| 2026-04-19 20:24 | -51.61917 | -68.95136 | 2989 ft | 171 kts | 281° |
| 2026-04-19 20:25 | -51.61762 | -68.96924 | 2980 ft | 150 kts | 282° |
| 2026-04-19 20:25 | -51.61619 | -68.98558 | 3006 ft | 148 kts | 282° |
| 2026-04-19 20:25 | -51.61471 | -69.00187 | 3002 ft | 145 kts | 283° |
| 2026-04-19 20:25 | -51.61327 | -69.01785 | 3005 ft | 146 kts | 283° |
| 2026-04-19 20:26 | -51.61183 | -69.03389 | 3005 ft | 143 kts | 283° |
| 2026-04-19 20:26 | -51.61038 | -69.05009 | 3007 ft | 144 kts | 283° |
| 2026-04-19 20:26 | -51.60921 | -69.06499 | 2853 ft | 129 kts | 281° |
| 2026-04-19 20:26 | -51.60902 | -69.06979 | 2790 ft | 126 kts | 279° |
| 2026-04-19 20:27 | -51.60885 | -69.09370 | 2510 ft | 129 kts | 278° |
| 2026-04-19 20:27 | -51.60878 | -69.10802 | 2342 ft | 129 kts | 280° |
| 2026-04-19 20:27 | -51.60822 | -69.12250 | 2178 ft | 128 kts | 282° |
| 2026-04-19 20:27 | -51.60747 | -69.13666 | 2013 ft | 127 kts | 282° |
| 2026-04-19 20:28 | -51.60718 | -69.15087 | 1849 ft | 128 kts | 279° |
| 2026-04-19 20:28 | -51.60682 | -69.16522 | 1759 ft | 127 kts | 283° |
| 2026-04-19 20:28 | -51.60600 | -69.17963 | 1629 ft | 130 kts | 282° |
| 2026-04-19 20:28 | -51.60542 | -69.19395 | 1359 ft | 130 kts | 281° |
| 2026-04-19 20:29 | -51.60507 | -69.20863 | 1150 ft | 134 kts | 279° |
| 2026-04-19 20:29 | -51.60507 | -69.22377 | 954 ft | 135 kts | 275° |
| 2026-04-19 20:29 | -51.60532 | -69.23842 | 759 ft | 133 kts | 274° |
| 2026-04-19 20:30 | -51.60673 | -69.26736 | 316 ft | 123 kts | 274° |
| 2026-04-19 20:30 | -51.60706 | -69.27657 | 241 ft | 127 kts | 270° |
| 2026-04-19 20:30 | -51.60802 | -69.29489 | 64 ft | 116 kts | 271° |
| 2026-04-19 20:30 | -51.60832 | -69.30308 | 58 ft | 100 kts | 265° |
| 2026-04-19 20:31 | -51.60894 | -69.31493 | 61 ft | 69 kts | 265° |
| 2026-04-19 20:31 | -51.60926 | -69.32141 | 68 ft | 42 kts | 265° |
| 2026-04-19 20:31 | -51.61004 | -69.32394 | 65 ft | 22 kts | 173° |
| 2026-04-19 20:31 | -51.61043 | -69.32387 | 62 ft | 0 kts | 174° |
| 2026-04-19 20:32 | -51.61052 | -69.32386 | 65 ft | 6 kts | 173° |
| 2026-04-19 20:32 | -51.61118 | -69.32283 | 64 ft | 18 kts | 95° |
| 2026-04-19 20:32 | -51.61109 | -69.32057 | 68 ft | 22 kts | 86° |
| 2026-04-19 20:32 | -51.61100 | -69.31886 | 59 ft | 24 kts | 84° |
| 2026-04-19 20:33 | -51.61084 | -69.31502 | 60 ft | 28 kts | 85° |
| 2026-04-19 20:33 | -51.61074 | -69.31291 | 66 ft | 29 kts | 85° |
| 2026-04-19 20:33 | -51.61056 | -69.30906 | 57 ft | 25 kts | 84° |
| 2026-04-19 20:33 | -51.61046 | -69.30680 | 58 ft | 17 kts | 89° |
| 2026-04-19 20:34 | -51.61089 | -69.30545 | 63 ft | 13 kts | 130° |
| 2026-04-19 20:34 | -51.61140 | -69.30479 | 58 ft | 5 kts | 201° |
| 2026-04-19 20:34 | -51.61151 | -69.30518 | 60 ft | 3 kts | 270° |
| 2026-04-19 20:34 | -51.61150 | -69.30527 | 62 ft | 0 kts | 279° |
| 2026-04-19 20:35 | -51.61150 | -69.30532 | 62 ft | 0 kts | 276° |